createdAt,value
2023-05-22T01:00:01.222Z,482.60
2023-05-22T01:30:01.269Z,479.90
2023-05-22T01:40:01.185Z,486.60
2023-05-22T03:20:01.186Z,390.10
2023-05-22T03:50:01.267Z,390.00
2023-05-22T04:10:01.207Z,395.50
2023-05-22T06:10:01.225Z,435.10
2023-05-22T06:30:01.239Z,459.60
2023-05-22T07:10:01.202Z,497.30
2023-05-22T07:20:01.218Z,483.90
2023-05-22T08:00:01.179Z,495.40
2023-05-22T08:10:01.186Z,497.40
2023-05-22T08:20:01.691Z,516.50
2023-05-22T08:30:01.244Z,535.50
2023-05-22T08:50:01.281Z,564.00
2023-05-22T09:10:01.196Z,566.90
2023-05-22T09:50:01.217Z,620.20
2023-05-22T10:10:01.190Z,625.80
2023-05-22T10:50:01.788Z,598.60
2023-05-22T11:10:01.222Z,593.00
2023-05-22T11:30:01.200Z,605.20
2023-05-22T11:50:01.238Z,616.30
2023-05-22T12:10:01.275Z,634.10
2023-05-22T12:50:01.296Z,677.70
2023-05-22T13:10:01.247Z,677.10
2023-05-22T13:30:01.198Z,677.80
2023-05-22T13:50:01.254Z,677.10
2023-05-22T14:30:01.215Z,693.50
2023-05-22T15:00:00.596Z,685.60
2023-05-22T15:20:01.279Z,695.00
2023-05-22T15:40:01.494Z,708.60
2023-05-22T16:00:00.598Z,685.80
2023-05-22T16:20:01.635Z,667.80
2023-05-22T17:00:01.531Z,657.00
2023-05-22T17:20:01.365Z,641.20
2023-05-22T17:40:01.358Z,646.30
2023-05-22T18:00:01.250Z,617.40
2023-05-22T18:20:01.258Z,589.20
2023-05-22T18:40:01.246Z,574.30
2023-05-22T19:00:01.207Z,562.70
2023-05-22T19:20:01.202Z,525.00
2023-05-22T19:40:01.375Z,471.80
2023-05-22T20:00:01.310Z,433.10
2023-05-22T20:20:01.197Z,413.80
2023-05-22T20:40:01.359Z,408.20
2023-05-22T21:20:01.388Z,397.40
2023-05-22T21:40:01.238Z,396.60
2023-05-22T21:50:02.821Z,401.10
2023-05-22T22:00:01.223Z,401.60
2023-05-22T22:20:01.256Z,396.20
2023-05-22T22:40:01.249Z,393.30
2023-05-22T23:00:01.271Z,381.70
2023-05-22T23:20:01.315Z,375.80
2023-05-22T23:40:01.785Z,384.00
